createdAt,value
2023-09-02T00:00:45.211Z,16.53
2023-09-02T00:03:36.462Z,16.71
2023-09-02T00:06:05.360Z,16.62
2023-09-02T00:08:34.463Z,16.73
2023-09-02T00:11:03.223Z,16.92
2023-09-02T00:13:31.951Z,17.06
2023-09-02T00:16:00.855Z,17.09
2023-09-02T00:18:30.345Z,16.97
2023-09-02T00:20:59.044Z,16.94
2023-09-02T00:23:27.794Z,16.91
2023-09-02T00:25:57.495Z,16.85
2023-09-02T00:28:26.475Z,16.74
2023-09-02T00:30:55.405Z,16.75
2023-09-02T00:33:24.171Z,16.62
2023-09-02T00:35:52.934Z,16.54
2023-09-02T00:38:21.804Z,16.44
2023-09-02T00:40:59.380Z,16.35
2023-09-02T00:43:30.278Z,16.22
2023-09-02T00:45:59.892Z,16.12
2023-09-02T00:48:28.645Z,15.97
2023-09-02T00:50:57.736Z,15.81
2023-09-02T00:53:26.691Z,15.74
2023-09-02T00:55:56.177Z,15.81
2023-09-02T00:58:25.991Z,15.82
2023-09-02T01:00:54.962Z,15.75
2023-09-02T01:03:23.837Z,15.66
2023-09-02T01:05:52.710Z,15.55
2023-09-02T01:08:22.311Z,15.47
2023-09-02T01:10:52.012Z,15.35
2023-09-02T01:13:20.732Z,15.34
2023-09-02T01:15:49.522Z,15.44
2023-09-02T01:18:18.299Z,15.55
2023-09-02T01:21:12.563Z,15.64
2023-09-02T01:23:46.614Z,15.53
2023-09-02T01:26:47.407Z,15.48
2023-09-02T01:29:22.281Z,15.54
2023-09-02T01:31:53.766Z,15.48
2023-09-02T01:34:25.194Z,15.34
2023-09-02T01:36:54.705Z,15.28
2023-09-02T01:39:24.370Z,15.19
2023-09-02T01:41:54.183Z,15.26
2023-09-02T01:44:26.584Z,15.50
2023-09-02T01:46:57.089Z,15.44
2023-09-02T01:49:26.432Z,15.36
2023-09-02T01:51:56.938Z,15.30
2023-09-02T01:54:27.061Z,15.43
2023-09-02T01:56:56.564Z,15.42
2023-09-02T01:59:25.368Z,15.43
2023-09-02T02:01:54.125Z,15.51
2023-09-02T02:04:45.943Z,15.37
2023-09-02T02:07:16.163Z,15.19
2023-09-02T02:09:52.257Z,15.11
2023-09-02T02:12:21.993Z,15.14
2023-09-02T02:14:51.140Z,15.12
2023-09-02T02:17:19.848Z,15.18
2023-09-02T02:19:49.008Z,15.06
2023-09-02T02:22:18.016Z,14.96
2023-09-02T02:24:46.834Z,14.96
2023-09-02T02:27:15.557Z,15.41
2023-09-02T02:29:47.264Z,15.28
2023-09-02T02:32:16.137Z,15.30
2023-09-02T02:34:45.709Z,15.54
2023-09-02T02:37:14.503Z,15.69
2023-09-02T02:39:43.282Z,15.57
2023-09-02T02:42:12.063Z,15.42
2023-09-02T02:44:40.884Z,15.29
2023-09-02T02:47:09.734Z,15.19
2023-09-02T02:49:38.464Z,15.07
2023-09-02T02:52:07.559Z,14.92
2023-09-02T02:54:38.557Z,14.78
2023-09-02T02:57:07.999Z,14.64
2023-09-02T02:59:36.982Z,14.55
2023-09-02T03:02:05.778Z,14.57
2023-09-02T03:04:34.641Z,14.59
2023-09-02T03:07:03.490Z,14.58
2023-09-02T03:09:32.985Z,14.54
2023-09-02T03:12:01.690Z,14.65
2023-09-02T03:14:30.559Z,14.63
2023-09-02T03:16:59.842Z,14.53
2023-09-02T03:19:29.002Z,14.41
2023-09-02T03:21:58.021Z,14.38
2023-09-02T03:24:26.892Z,14.43
2023-09-02T03:26:55.682Z,14.46
2023-09-02T03:29:25.120Z,14.47
2023-09-02T03:31:54.582Z,14.43
2023-09-02T03:34:23.450Z,14.45
2023-09-02T03:36:52.191Z,14.52
2023-09-02T03:39:20.910Z,14.64
2023-09-02T03:41:49.634Z,14.67
2023-09-02T03:44:18.332Z,14.80
2023-09-02T03:46:47.208Z,14.78
2023-09-02T03:49:16.070Z,14.70
2023-09-02T03:51:45.249Z,14.75
2023-09-02T03:54:14.430Z,14.70
2023-09-02T03:56:43.423Z,14.64
2023-09-02T03:59:12.223Z,14.70
2023-09-02T04:01:41.518Z,14.80
2023-09-02T04:04:10.466Z,14.79
2023-09-02T04:06:40.631Z,14.76
2023-09-02T04:09:09.424Z,14.74
2023-09-02T04:11:38.203Z,14.86
2023-09-02T04:14:07.193Z,14.91
2023-09-02T04:16:36.275Z,15.12
2023-09-02T04:19:05.633Z,15.39
2023-09-02T04:21:34.548Z,15.41
2023-09-02T04:24:03.512Z,15.46
2023-09-02T04:26:33.048Z,15.49
2023-09-02T04:29:01.829Z,15.40
2023-09-02T04:31:31.265Z,15.31
2023-09-02T04:34:00.240Z,15.24
2023-09-02T04:36:30.396Z,15.36
2023-09-02T04:38:59.652Z,15.49
2023-09-02T04:41:29.030Z,15.52
2023-09-02T04:43:59.322Z,15.50
2023-09-02T04:46:28.181Z,15.46
2023-09-02T04:48:56.965Z,15.55
2023-09-02T04:51:25.928Z,15.68
2023-09-02T04:53:54.776Z,15.89
2023-09-02T04:56:24.794Z,16.10
2023-09-02T04:58:53.687Z,16.16
2023-09-02T05:01:24.641Z,16.26
2023-09-02T05:03:57.380Z,16.57
2023-09-02T05:06:26.340Z,16.82
2023-09-02T05:08:56.738Z,17.03
2023-09-02T05:11:29.718Z,17.24
2023-09-02T05:14:00.171Z,17.44
2023-09-02T05:16:29.227Z,17.48
2023-09-02T05:18:57.992Z,17.56
2023-09-02T05:21:28.042Z,17.71
2023-09-02T05:23:57.469Z,17.75
2023-09-02T05:26:26.213Z,17.80
2023-09-02T05:28:54.976Z,17.86
2023-09-02T05:31:23.880Z,17.93
2023-09-02T05:34:11.505Z,18.01
2023-09-02T05:36:40.279Z,18.16
2023-09-02T05:39:09.377Z,18.30
2023-09-02T05:41:38.420Z,18.41
2023-09-02T05:44:07.401Z,18.52
2023-09-02T05:46:36.167Z,18.60
2023-09-02T05:49:05.102Z,18.67
2023-09-02T05:51:33.825Z,18.73
2023-09-02T05:54:02.560Z,18.80
2023-09-02T05:56:32.939Z,18.86
2023-09-02T05:59:03.366Z,18.91
2023-09-02T06:01:32.959Z,19.00
2023-09-02T06:04:01.753Z,19.06
2023-09-02T06:06:33.074Z,19.20
2023-09-02T06:09:02.674Z,19.30
2023-09-02T06:11:32.694Z,19.40
2023-09-02T06:14:01.511Z,19.55
2023-09-02T06:16:30.387Z,19.70
2023-09-02T06:18:59.113Z,19.77
2023-09-02T06:21:27.892Z,19.87
2023-09-02T06:23:56.657Z,20.00
2023-09-02T06:26:26.910Z,20.18
2023-09-02T06:28:55.649Z,20.33
2023-09-02T06:31:26.646Z,20.51
2023-09-02T06:33:55.703Z,20.66
2023-09-02T06:36:24.712Z,20.83
2023-09-02T06:38:54.243Z,20.99
2023-09-02T06:41:23.096Z,21.06
2023-09-02T06:43:52.224Z,21.18
2023-09-02T06:46:22.268Z,21.35
2023-09-02T06:48:51.235Z,21.46
2023-09-02T06:51:19.956Z,21.60
2023-09-02T06:53:48.617Z,21.72
2023-09-02T06:56:17.255Z,21.78
2023-09-02T06:58:46.829Z,21.83
2023-09-02T07:01:25.655Z,21.89
2023-09-02T07:03:56.988Z,21.88
2023-09-02T07:06:25.832Z,21.96
2023-09-02T07:08:54.539Z,22.18
2023-09-02T07:11:23.300Z,22.35
2023-09-02T07:13:52.109Z,22.54
2023-09-02T07:16:21.442Z,22.70
2023-09-02T07:18:50.378Z,22.71
2023-09-02T07:21:23.827Z,22.85
2023-09-02T07:23:54.957Z,22.90
2023-09-02T07:26:28.852Z,23.05
2023-09-02T07:28:57.639Z,23.18
2023-09-02T07:31:26.427Z,23.24
2023-09-02T07:33:55.193Z,23.30
2023-09-02T07:36:23.965Z,23.37
2023-09-02T07:38:52.884Z,23.32
2023-09-02T07:41:21.581Z,23.43
2023-09-02T07:43:50.293Z,23.63
2023-09-02T07:46:19.091Z,23.84
2023-09-02T07:48:52.027Z,23.91
2023-09-02T07:51:20.888Z,24.04
2023-09-02T07:53:49.613Z,24.14
2023-09-02T07:56:18.298Z,24.24
2023-09-02T07:58:49.823Z,24.39
2023-09-02T08:01:20.148Z,24.46
2023-09-02T08:03:50.052Z,24.61
2023-09-02T08:06:18.773Z,24.70
2023-09-02T08:08:48.029Z,24.91
2023-09-02T08:11:19.992Z,25.10
2023-09-02T08:13:48.690Z,25.29
2023-09-02T08:16:17.957Z,25.38
2023-09-02T08:18:46.822Z,25.31
2023-09-02T08:21:15.613Z,25.33
2023-09-02T08:23:44.789Z,25.30
2023-09-02T08:26:14.533Z,25.21
2023-09-02T08:28:43.502Z,25.11
2023-09-02T08:31:16.981Z,25.16
2023-09-02T08:33:45.736Z,25.32
2023-09-02T08:36:36.280Z,25.29
2023-09-02T08:39:15.532Z,25.41
2023-09-02T08:41:55.193Z,25.58
2023-09-02T08:44:32.587Z,25.70
2023-09-02T08:47:06.092Z,25.81
2023-09-02T08:49:35.741Z,25.75
2023-09-02T08:52:06.828Z,25.84
2023-09-02T08:54:38.397Z,25.99
2023-09-02T08:57:07.986Z,26.13
2023-09-02T09:03:13.328Z,26.40
2023-09-02T09:05:44.756Z,26.53
2023-09-02T09:08:14.675Z,26.48
2023-09-02T09:10:46.497Z,26.68
2023-09-02T09:13:17.850Z,26.52
2023-09-02T09:15:47.639Z,26.42
2023-09-02T09:18:17.935Z,26.16
2023-09-02T09:20:46.638Z,26.53
2023-09-02T09:23:15.427Z,26.62
2023-09-02T09:25:44.297Z,26.77
2023-09-02T09:28:14.181Z,26.88
2023-09-02T09:30:43.494Z,26.82
2023-09-02T09:33:13.275Z,26.86
2023-09-02T09:35:41.994Z,26.96
2023-09-02T09:38:10.736Z,27.11
2023-09-02T09:40:42.435Z,27.11
2023-09-02T09:43:18.730Z,27.12
2023-09-02T09:45:52.123Z,27.20
2023-09-02T09:48:21.061Z,27.28
2023-09-02T09:50:49.815Z,27.36
2023-09-02T09:53:19.105Z,27.54
2023-09-02T09:55:48.600Z,27.59
2023-09-02T09:58:24.798Z,27.71
2023-09-02T10:00:56.110Z,27.86
2023-09-02T10:03:32.065Z,27.90
2023-09-02T10:06:01.388Z,27.84
2023-09-02T10:08:50.215Z,27.80
2023-09-02T10:11:24.073Z,27.88
2023-09-02T10:13:54.345Z,27.79
2023-09-02T10:16:27.314Z,27.83
2023-09-02T10:18:56.491Z,27.85
2023-09-02T10:21:30.382Z,27.84
2023-09-02T10:24:05.999Z,27.94
2023-09-02T10:26:50.061Z,28.03
2023-09-02T10:29:23.021Z,28.33
2023-09-02T10:31:58.784Z,28.64
2023-09-02T10:34:46.538Z,29.08
2023-09-02T10:37:20.332Z,29.63
2023-09-02T10:40:23.432Z,29.92
2023-09-02T10:42:54.273Z,29.57
2023-09-02T10:45:23.705Z,30.17
2023-09-02T10:47:55.756Z,30.26
2023-09-02T10:50:27.497Z,30.65
2023-09-02T10:53:12.397Z,31.22
2023-09-02T10:56:04.372Z,31.52
2023-09-02T10:58:48.878Z,31.82
2023-09-02T11:01:17.790Z,32.14
2023-09-02T11:03:51.363Z,32.07
2023-09-02T11:06:20.143Z,31.93
2023-09-02T11:08:55.234Z,31.82
2023-09-02T11:11:24.777Z,31.91
2023-09-02T11:14:08.803Z,31.96
2023-09-02T11:16:39.883Z,32.12
2023-09-02T11:19:12.623Z,32.11
2023-09-02T11:22:15.278Z,31.83
2023-09-02T11:24:50.163Z,31.56
2023-09-02T11:27:31.390Z,31.70
2023-09-02T11:30:12.783Z,32.58
2023-09-02T11:32:45.655Z,33.00
2023-09-02T11:35:45.506Z,32.99
2023-09-02T11:38:24.573Z,33.31
2023-09-02T11:40:53.373Z,33.41
2023-09-02T11:43:33.168Z,33.31
2023-09-02T11:46:19.693Z,33.70
2023-09-02T11:48:53.168Z,33.21
2023-09-02T11:51:29.967Z,33.42
2023-09-02T11:54:04.447Z,32.67
2023-09-02T11:56:37.088Z,33.45
2023-09-02T11:59:06.266Z,33.73
2023-09-02T12:01:46.263Z,33.90
2023-09-02T12:04:25.773Z,33.48
2023-09-02T12:07:00.481Z,33.95
2023-09-02T12:09:36.689Z,34.44
2023-09-02T12:12:08.778Z,34.31
2023-09-02T12:14:59.626Z,34.49
2023-09-02T12:17:29.223Z,34.70
2023-09-02T12:20:06.932Z,34.39
2023-09-02T12:22:42.419Z,34.53
2023-09-02T12:25:28.020Z,34.65
2023-09-02T12:28:15.273Z,34.45
2023-09-02T12:30:51.393Z,34.89
2023-09-02T12:33:24.492Z,36.58
2023-09-02T12:35:53.250Z,37.38
2023-09-02T12:38:22.501Z,38.06
2023-09-02T12:40:56.378Z,37.74
2023-09-02T12:43:28.685Z,37.40
2023-09-02T12:45:58.262Z,37.71
2023-09-02T12:48:27.170Z,36.51
2023-09-02T12:50:55.826Z,36.16
2023-09-02T12:53:24.682Z,36.68
2023-09-02T12:55:53.688Z,36.37
2023-09-02T12:58:22.319Z,36.63
2023-09-02T13:00:51.755Z,37.63
2023-09-02T13:03:20.842Z,37.53
2023-09-02T13:05:49.980Z,37.77
2023-09-02T13:08:18.722Z,37.80
2023-09-02T13:10:47.580Z,37.01
2023-09-02T13:13:18.405Z,36.44
2023-09-02T13:15:47.228Z,35.69
2023-09-02T13:18:16.132Z,35.38
2023-09-02T13:20:47.678Z,34.64
2023-09-02T13:23:18.914Z,33.82
2023-09-02T13:25:50.681Z,32.72
2023-09-02T13:28:19.361Z,31.73
2023-09-02T13:30:51.349Z,32.11
2023-09-02T13:33:23.157Z,33.55
2023-09-02T13:35:52.017Z,34.30
2023-09-02T13:38:25.072Z,35.36
2023-09-02T13:41:08.677Z,36.03
2023-09-02T13:43:37.443Z,36.11
2023-09-02T13:46:11.381Z,36.69
2023-09-02T13:48:40.307Z,36.45
2023-09-02T13:51:18.129Z,37.40
2023-09-02T13:53:47.067Z,37.84
2023-09-02T13:56:21.902Z,39.16
2023-09-02T13:58:52.808Z,39.70
2023-09-02T14:01:21.839Z,39.07
2023-09-02T14:03:58.355Z,38.98
2023-09-02T14:06:31.456Z,39.16
2023-09-02T14:09:06.651Z,38.99
2023-09-02T14:11:35.700Z,39.50
2023-09-02T14:14:04.595Z,39.99
2023-09-02T14:16:33.327Z,40.01
2023-09-02T14:19:02.380Z,39.38
2023-09-02T14:21:35.439Z,39.20
2023-09-02T14:24:07.472Z,38.00
2023-09-02T14:26:36.311Z,36.65
2023-09-02T14:29:05.119Z,37.68
2023-09-02T14:31:36.543Z,38.09
2023-09-02T14:34:05.573Z,38.65
2023-09-02T14:36:34.305Z,38.29
2023-09-02T14:39:03.015Z,39.14
2023-09-02T14:41:33.159Z,39.65
2023-09-02T14:44:01.930Z,39.55
2023-09-02T14:46:41.570Z,40.13
2023-09-02T14:49:31.122Z,40.34
2023-09-02T14:52:02.274Z,39.26
2023-09-02T14:54:32.997Z,40.02
2023-09-02T14:57:04.514Z,39.19
2023-09-02T14:59:33.416Z,39.71
2023-09-02T15:02:02.497Z,40.04
2023-09-02T15:04:31.333Z,39.96
2023-09-02T15:07:01.468Z,39.64
2023-09-02T15:09:37.817Z,39.77
2023-09-02T15:12:07.736Z,39.65
2023-09-02T15:14:37.773Z,38.78
2023-09-02T15:17:06.578Z,38.08
2023-09-02T15:19:35.498Z,37.77
2023-09-02T15:22:04.487Z,37.89
2023-09-02T15:24:34.784Z,38.31
2023-09-02T15:27:05.566Z,38.08
2023-09-02T15:29:36.405Z,37.91
2023-09-02T15:32:07.938Z,37.50
2023-09-02T15:34:42.018Z,37.46
2023-09-02T15:37:18.064Z,36.95
2023-09-02T15:39:47.405Z,36.61
2023-09-02T15:42:16.151Z,35.82
2023-09-02T15:44:49.325Z,35.71
2023-09-02T15:47:18.028Z,35.75
2023-09-02T15:49:46.924Z,35.77
2023-09-02T15:52:15.638Z,35.78
2023-09-02T15:54:44.347Z,35.16
2023-09-02T15:57:14.823Z,35.03
2023-09-02T15:59:43.574Z,34.80
2023-09-02T16:02:12.377Z,34.81
2023-09-02T16:04:41.280Z,34.39
2023-09-02T16:07:11.329Z,34.23
2023-09-02T16:09:40.098Z,33.95
2023-09-02T16:12:08.866Z,33.30
2023-09-02T16:14:37.600Z,33.07
2023-09-02T16:17:29.353Z,32.33
2023-09-02T16:19:58.207Z,31.53
2023-09-02T16:22:28.709Z,31.01
2023-09-02T16:24:57.475Z,30.39
2023-09-02T16:27:26.231Z,29.99
2023-09-02T16:29:55.275Z,29.61
2023-09-02T16:32:24.170Z,29.29
2023-09-02T16:34:53.312Z,28.94
2023-09-02T16:37:22.752Z,28.59
2023-09-02T16:40:00.457Z,28.39
2023-09-02T16:42:34.103Z,28.11
2023-09-02T16:45:06.493Z,27.79
2023-09-02T16:47:45.776Z,27.54
2023-09-02T16:50:26.138Z,27.24
2023-09-02T16:52:55.883Z,27.04
2023-09-02T16:55:29.406Z,26.98
2023-09-02T16:58:06.795Z,26.85
2023-09-02T17:00:36.999Z,26.62
2023-09-02T17:03:06.535Z,26.44
2023-09-02T17:05:36.286Z,26.27
2023-09-02T17:08:09.090Z,26.11
2023-09-02T17:10:37.852Z,25.87
2023-09-02T17:13:08.300Z,25.68
2023-09-02T17:15:39.476Z,25.48
2023-09-02T17:18:14.706Z,25.30
2023-09-02T17:20:44.658Z,25.10
2023-09-02T17:23:16.095Z,24.84
2023-09-02T17:25:47.782Z,24.64
2023-09-02T17:28:22.602Z,24.41
2023-09-02T17:31:10.412Z,24.20
2023-09-02T17:33:41.061Z,23.96
2023-09-02T17:36:09.865Z,23.78
2023-09-02T17:38:38.583Z,23.63
2023-09-02T17:41:07.377Z,23.51
2023-09-02T17:43:36.192Z,23.43
2023-09-02T17:46:05.111Z,23.33
2023-09-02T17:48:33.968Z,23.20
2023-09-02T17:51:02.779Z,23.06
2023-09-02T17:53:31.523Z,22.86
2023-09-02T17:56:00.389Z,22.72
2023-09-02T17:58:31.779Z,22.57
2023-09-02T18:01:00.546Z,22.44
2023-09-02T18:03:29.487Z,22.30
2023-09-02T18:05:58.366Z,22.25
2023-09-02T18:08:35.049Z,22.23
2023-09-02T18:11:10.596Z,22.17
2023-09-02T18:13:39.369Z,22.10
2023-09-02T18:16:08.339Z,22.01
2023-09-02T18:18:37.172Z,21.91
2023-09-02T18:21:05.838Z,21.82
2023-09-02T18:23:36.017Z,21.75
2023-09-02T18:26:05.315Z,21.67
2023-09-02T18:28:34.118Z,21.58
2023-09-02T18:31:03.578Z,21.46
2023-09-02T18:33:32.456Z,21.35
2023-09-02T18:36:01.159Z,21.27
2023-09-02T18:38:29.867Z,21.20
2023-09-02T18:40:58.629Z,21.14
2023-09-02T18:43:27.516Z,21.08
2023-09-02T18:45:56.239Z,21.04
2023-09-02T18:48:24.990Z,20.99
2023-09-02T18:50:54.668Z,20.95
2023-09-02T18:53:24.115Z,20.87
2023-09-02T18:55:52.857Z,20.79
2023-09-02T18:58:21.662Z,20.67
2023-09-02T19:00:51.625Z,20.60
2023-09-02T19:03:20.516Z,20.53
2023-09-02T19:05:49.825Z,20.49
2023-09-02T19:08:18.760Z,20.45
2023-09-02T19:10:47.849Z,20.44
2023-09-02T19:13:16.677Z,20.41
2023-09-02T19:15:45.455Z,20.38
2023-09-02T19:18:14.252Z,20.33
2023-09-02T19:20:43.022Z,20.32
2023-09-02T19:23:12.645Z,20.27
2023-09-02T19:25:43.546Z,20.20
2023-09-02T19:28:12.350Z,20.19
2023-09-02T19:30:42.049Z,20.16
2023-09-02T19:33:11.252Z,20.20
2023-09-02T19:35:40.111Z,20.16
2023-09-02T19:38:08.810Z,20.10
2023-09-02T19:40:37.624Z,20.03
2023-09-02T19:43:06.863Z,19.93
2023-09-02T19:45:35.892Z,19.94
2023-09-02T19:48:05.262Z,19.91
2023-09-02T19:50:35.787Z,19.82
2023-09-02T19:53:04.792Z,19.75
2023-09-02T19:55:33.571Z,19.67
2023-09-02T19:58:05.537Z,19.58
2023-09-02T20:00:46.829Z,19.50
2023-09-02T20:03:19.230Z,19.48
2023-09-02T20:05:50.288Z,19.47
